Time;durP1;ratioP1;P1;durP2;ratioP2;P2;SDS_P1;SDS_P2;PMS_P1;PMS_P2;Temp;Humidity;BMP_temperature;BMP_pressure;BME280_temperature;BME280_humidity;BME280_pressure;Samples;Min_cycle;Max_cycle;Signal;HPM_P1;HPM_P2
2023/12/31 00:01:34;;;;;;;5.05;3.00;;;13.00;99.90;;;;;;7382728;19;20003;-78
2023/12/31 00:04:02;;;;;;;4.82;2.85;;;13.10;99.90;;;;;;7381190;19;19999;-77
2023/12/31 00:06:31;;;;;;;5.88;2.97;;;13.00;99.90;;;;;;7405134;19;20019;-78
2023/12/31 00:09:00;;;;;;;6.80;3.28;;;13.00;99.90;;;;;;7382585;19;20038;-78
2023/12/31 00:11:30;;;;;;;6.38;3.17;;;13.00;99.90;;;;;;7381638;19;20058;-78
2023/12/31 00:14:02;;;;;;;4.63;3.25;;;12.80;99.90;;;;;;7380620;19;20017;-78
2023/12/31 00:16:33;;;;;;;5.28;3.08;;;12.80;99.90;;;;;;7384857;19;20095;-78
2023/12/31 00:19:04;;;;;;;6.63;3.25;;;12.80;99.90;;;;;;7385444;19;20006;-78
2023/12/31 00:21:33;;;;;;;6.03;3.13;;;12.70;99.90;;;;;;7403075;19;20010;-79
2023/12/31 00:24:02;;;;;;;9.85;3.45;;;12.90;99.90;;;;;;7382563;19;20028;-78
2023/12/31 00:26:30;;;;;;;9.68;4.05;;;12.90;99.90;;;;;;7382975;19;20448;-78
2023/12/31 00:29:02;;;;;;;11.90;3.63;;;13.00;99.90;;;;;;7392833;19;20015;-77
2023/12/31 00:31:30;;;;;;;4.28;3.08;;;13.00;99.90;;;;;;7402513;19;20007;-77
2023/12/31 00:33:59;;;;;;;6.63;3.45;;;13.00;99.90;;;;;;7402695;19;20083;-77
2023/12/31 00:36:28;;;;;;;6.63;3.13;;;12.80;99.90;;;;;;7423745;19;20018;-77
2023/12/31 00:38:57;;;;;;;5.43;3.10;;;13.00;99.90;;;;;;7402578;19;20014;-77
2023/12/31 00:41:25;;;;;;;8.38;3.72;;;13.00;99.90;;;;;;7388490;19;20007;-78
2023/12/31 00:43:57;;;;;;;4.70;3.05;;;12.90;99.90;;;;;;7384134;19;20011;-78
2023/12/31 00:46:28;;;;;;;6.13;3.50;;;12.80;99.90;;;;;;7385192;19;20003;-78
2023/12/31 00:48:56;;;;;;;;;;;12.90;99.90;;;;;;7385828;19;20011;-78
2023/12/31 00:51:27;;;;;;;7.03;3.67;;;12.80;99.90;;;;;;7407239;19;20215;-77
2023/12/31 00:53:56;;;;;;;4.93;3.40;;;12.70;99.90;;;;;;7386963;19;20011;-78
2023/12/31 00:56:25;;;;;;;5.40;3.67;;;12.80;99.90;;;;;;7388715;19;20014;-78
2023/12/31 00:58:53;;;;;;;7.97;3.30;;;12.80;99.90;;;;;;7382306;19;20286;-78
2023/12/31 01:01:24;;;;;;;5.70;3.30;;;12.90;99.90;;;;;;7381960;19;20402;-78
2023/12/31 01:03:56;;;;;;;11.48;4.03;;;12.90;99.90;;;;;;7403381;19;20030;-78
2023/12/31 01:06:24;;;;;;;7.22;3.70;;;13.00;99.90;;;;;;7380830;19;20006;-78
2023/12/31 01:08:54;;;;;;;4.60;3.10;;;12.80;99.90;;;;;;7379611;19;20006;-78
2023/12/31 01:11:23;;;;;;;10.00;3.35;;;12.90;99.90;;;;;;7379689;19;20014;-78
2023/12/31 01:13:49;;;;;;;8.80;3.78;;;13.00;99.90;;;;;;7380594;19;20019;-78
2023/12/31 01:16:18;;;;;;;6.22;3.75;;;13.00;99.90;;;;;;7382322;19;20050;-78
2023/12/31 01:18:46;;;;;;;6.32;3.80;;;13.00;99.90;;;;;;7401609;19;20011;-78
2023/12/31 01:21:20;;;;;;;6.45;3.47;;;13.10;99.90;;;;;;7378852;19;20420;-77
2023/12/31 01:23:49;;;;;;;5.88;3.92;;;13.10;99.90;;;;;;7379543;19;20109;-77
2023/12/31 01:26:18;;;;;;;5.55;4.00;;;13.10;99.90;;;;;;7378713;19;20264;-77
2023/12/31 01:28:46;;;;;;;5.82;4.00;;;13.10;99.90;;;;;;7379700;19;20027;-77
2023/12/31 01:31:21;;;;;;;6.57;3.80;;;13.20;99.90;;;;;;7380502;19;20029;-77
2023/12/31 01:33:49;;;;;;;5.85;3.63;;;13.10;99.90;;;;;;7400961;19;20007;-77
2023/12/31 01:36:24;;;;;;;6.50;3.55;;;13.10;99.90;;;;;;7383219;19;20003;-77
2023/12/31 01:38:53;;;;;;;6.07;3.05;;;13.10;99.90;;;;;;7383770;19;19999;-77
2023/12/31 01:41:22;;;;;;;5.32;3.65;;;13.10;99.90;;;;;;7381253;19;20014;-77
2023/12/31 01:43:52;;;;;;;6.60;3.63;;;13.10;99.90;;;;;;7380491;19;20050;-77
2023/12/31 01:46:32;;;;;;;6.88;3.58;;;13.00;99.90;;;;;;7382433;19;20024;-77
2023/12/31 01:49:02;;;;;;;6.45;3.45;;;13.00;99.90;;;;;;7382638;19;20011;-78
2023/12/31 01:51:34;;;;;;;5.90;3.42;;;12.80;99.90;;;;;;7402483;19;20018;-78
2023/12/31 01:54:04;;;;;;;6.43;3.53;;;12.90;99.90;;;;;;7379310;19;20424;-78
2023/12/31 01:56:36;;;;;;;6.13;3.08;;;13.00;99.90;;;;;;7379791;19;20054;-77
2023/12/31 01:59:06;;;;;;;7.05;3.55;;;12.90;99.90;;;;;;7378872;19;20007;-77
2023/12/31 02:01:36;;;;;;;6.35;3.28;;;13.00;99.90;;;;;;7379947;19;20016;-77
2023/12/31 02:04:06;;;;;;;5.30;3.50;;;13.00;99.90;;;;;;7377887;19;20003;-77
2023/12/31 02:06:37;;;;;;;5.68;3.72;;;13.00;99.90;;;;;;7401042;19;20017;-78
2023/12/31 02:09:06;;;;;;;;;;;13.10;99.90;;;;;;7380909;19;20062;-78
2023/12/31 02:11:35;;;;;;;6.65;3.50;;;13.10;99.90;;;;;;7382169;19;19907;-77
2023/12/31 02:14:07;;;;;;;5.70;3.35;;;13.00;99.90;;;;;;7379559;19;20043;-77
2023/12/31 02:16:35;;;;;;;7.78;3.30;;;13.10;99.90;;;;;;7378451;19;20059;-78
2023/12/31 02:19:05;;;;;;;6.20;3.30;;;12.90;99.90;;;;;;7381089;19;20014;-77
2023/12/31 02:21:33;;;;;;;6.90;3.38;;;12.90;99.90;;;;;;7400730;19;20014;-77
2023/12/31 02:24:05;;;;;;;7.80;3.75;;;12.90;99.90;;;;;;7377856;19;20028;-78
2023/12/31 02:26:38;;;;;;;4.78;3.35;;;13.00;99.90;;;;;;7381911;19;20016;-78
2023/12/31 02:29:07;;;;;;;5.75;3.15;;;13.00;99.90;;;;;;7380688;19;20358;-78
2023/12/31 02:31:35;;;;;;;6.43;3.47;;;12.80;99.90;;;;;;7380933;19;20003;-77
2023/12/31 02:34:05;;;;;;;7.38;3.78;;;12.70;99.90;;;;;;7378771;19;20007;-78
2023/12/31 02:36:34;;;;;;;4.60;2.80;;;12.80;99.90;;;;;;7401698;19;19998;-78
2023/12/31 02:39:05;;;;;;;5.07;2.83;;;12.70;99.90;;;;;;7392602;19;20003;-78
2023/12/31 02:41:36;;;;;;;7.00;3.10;;;12.70;99.90;;;;;;7399780;19;20006;-77
2023/12/31 02:44:07;;;;;;;4.45;2.63;;;12.80;99.90;;;;;;7398826;19;20007;-78
2023/12/31 02:46:35;;;;;;;4.30;2.72;;;12.80;99.90;;;;;;7407239;19;20023;-77
2023/12/31 02:49:06;;;;;;;4.15;2.72;;;12.80;99.90;;;;;;7396157;19;19999;-78
2023/12/31 02:51:36;;;;;;;5.60;2.90;;;12.90;99.90;;;;;;7409779;19;20015;-77
2023/12/31 02:54:05;;;;;;;6.32;2.95;;;12.90;99.90;;;;;;7384372;19;20027;-78
2023/12/31 02:56:41;;;;;;;7.03;3.10;;;12.90;99.90;;;;;;7383408;19;19998;-77
2023/12/31 02:59:14;;;;;;;5.47;2.78;;;12.80;99.90;;;;;;7384382;19;20015;-77
2023/12/31 03:01:43;;;;;;;4.80;2.58;;;12.80;99.90;;;;;;7383407;19;20011;-78
2023/12/31 03:04:12;;;;;;;5.55;2.75;;;12.90;99.90;;;;;;7384082;19;20006;-77
2023/12/31 03:06:41;;;;;;;4.47;2.60;;;13.00;99.90;;;;;;7405371;19;20295;-77
2023/12/31 03:09:10;;;;;;;5.28;2.92;;;13.00;99.90;;;;;;7384406;19;20657;-78
2023/12/31 03:11:43;;;;;;;2.45;2.17;;;13.00;99.90;;;;;;7384907;19;20019;-78
2023/12/31 03:14:12;;;;;;;6.07;2.60;;;13.00;99.90;;;;;;7386502;19;20077;-78
2023/12/31 03:16:46;;;;;;;4.03;2.38;;;13.10;99.90;;;;;;7386558;19;20066;-78
2023/12/31 03:19:15;;;;;;;5.50;2.65;;;13.20;99.90;;;;;;7386746;19;20006;-78
2023/12/31 03:21:44;;;;;;;4.72;2.90;;;13.20;99.90;;;;;;7407927;19;20093;-78
2023/12/31 03:24:15;;;;;;;4.93;2.58;;;13.10;99.90;;;;;;7387781;19;20003;-78
2023/12/31 03:26:46;;;;;;;4.88;2.80;;;13.10;99.90;;;;;;7385793;19;20007;-78
2023/12/31 03:29:13;;;;;;;4.57;2.45;;;13.20;99.90;;;;;;7386189;19;20006;-78
2023/12/31 03:31:44;;;;;;;6.95;2.90;;;13.20;99.90;;;;;;7389658;19;20278;-78
2023/12/31 03:34:12;;;;;;;2.97;2.13;;;13.20;99.90;;;;;;7389536;19;20010;-78
2023/12/31 03:36:41;;;;;;;6.00;2.50;;;12.80;99.90;;;;;;7409776;19;20065;-78
2023/12/31 03:39:10;;;;;;;8.48;2.50;;;12.90;99.90;;;;;;7385984;19;20003;-78
2023/12/31 03:41:39;;;;;;;3.63;2.20;;;13.00;99.90;;;;;;7385596;19;20015;-79
2023/12/31 03:44:10;;;;;;;4.07;2.60;;;13.20;99.90;;;;;;7386792;19;20007;-77
2023/12/31 03:46:39;;;;;;;6.15;2.35;;;13.20;99.90;;;;;;7385858;19;20031;-78
2023/12/31 03:49:08;;;;;;;3.38;2.20;;;13.30;99.90;;;;;;7405333;19;20006;-78
2023/12/31 03:51:36;;;;;;;3.20;2.13;;;13.20;99.90;;;;;;7383040;19;20055;-78
2023/12/31 03:54:05;;;;;;;8.90;2.50;;;13.00;99.90;;;;;;7383636;19;20015;-77
2023/12/31 03:56:34;;;;;;;4.22;2.47;;;12.60;99.90;;;;;;7384178;19;19999;-77
2023/12/31 03:59:03;;;;;;;9.32;3.03;;;12.60;99.90;;;;;;7384818;19;20013;-77
2023/12/31 04:01:38;;;;;;;7.93;2.80;;;12.70;99.90;;;;;;7382746;19;20020;-78
2023/12/31 04:04:07;;;;;;;4.85;2.88;;;12.90;99.90;;;;;;7409630;19;20334;-78
2023/12/31 04:06:35;;;;;;;3.03;2.65;;;12.70;99.90;;;;;;7383060;19;20011;-78
2023/12/31 04:09:04;;;;;;;11.82;2.45;;;12.40;99.90;;;;;;7384510;19;20011;-78
2023/12/31 04:11:33;;;;;;;10.68;2.33;;;12.10;99.90;;;;;;7384896;19;20170;-77
2023/12/31 04:14:02;;;;;;;9.27;2.30;;;12.10;99.90;;;;;;7381932;19;20090;-77
2023/12/31 04:16:30;;;;;;;3.75;2.15;;;11.90;99.90;;;;;;7382832;19;20019;-77
2023/12/31 04:19:02;;;;;;;2.65;1.85;;;12.10;99.90;;;;;;7403409;19;20007;-76
2023/12/31 04:21:31;;;;;;;2.03;1.48;;;12.20;99.90;;;;;;7380945;19;20007;-77
2023/12/31 04:23:59;;;;;;;5.03;1.60;;;12.10;99.90;;;;;;7380828;19;20011;-77
2023/12/31 04:26:28;;;;;;;5.40;1.40;;;12.20;99.90;;;;;;7382206;19;20032;-78
2023/12/31 04:28:57;;;;;;;1.77;1.40;;;11.80;99.90;;;;;;7382874;19;20020;-77
2023/12/31 04:31:26;;;;;;;4.13;1.25;;;11.80;99.90;;;;;;7384149;19;20366;-77
2023/12/31 04:33:55;;;;;;;2.05;1.02;;;12.00;99.90;;;;;;7402768;19;20002;-77
2023/12/31 04:36:26;;;;;;;2.03;1.23;;;12.10;99.90;;;;;;7381507;19;20031;-77
2023/12/31 04:38:57;;;;;;;3.30;1.17;;;11.80;99.90;;;;;;7382663;19;20256;-78
2023/12/31 04:41:26;;;;;;;;;;;12.20;99.90;;;;;;7383639;19;20027;-78
2023/12/31 04:43:54;;;;;;;5.38;0.90;;;12.30;99.90;;;;;;7389659;19;19952;-77
2023/12/31 04:46:23;;;;;;;1.38;0.75;;;12.10;99.90;;;;;;7401315;19;20010;-77
2023/12/31 04:48:57;;;;;;;5.35;0.93;;;12.00;99.90;;;;;;7422386;19;20014;-77
2023/12/31 04:51:29;;;;;;;1.45;0.80;;;12.30;99.90;;;;;;7403057;19;20003;-77
2023/12/31 04:54:01;;;;;;;1.88;0.80;;;11.90;99.90;;;;;;7401882;19;20035;-77
2023/12/31 04:56:30;;;;;;;1.58;0.93;;;12.10;99.90;;;;;;7385219;19;20373;-77
2023/12/31 04:59:00;;;;;;;2.78;0.85;;;12.20;99.90;;;;;;7380893;19;20055;-78
2023/12/31 05:01:32;;;;;;;7.10;0.90;;;12.20;99.90;;;;;;7381221;19;20031;-77
2023/12/31 05:04:01;;;;;;;4.25;0.80;;;12.20;99.90;;;;;;7400861;19;20019;-77
2023/12/31 05:06:32;;;;;;;2.95;0.77;;;11.90;99.90;;;;;;7379385;19;20017;-77
2023/12/31 05:09:03;;;;;;;4.72;1.00;;;12.10;99.90;;;;;;7377678;19;20488;-77
2023/12/31 05:11:29;;;;;;;0.93;0.68;;;12.20;99.90;;;;;;7379643;19;20066;-77
2023/12/31 05:13:58;;;;;;;4.95;1.10;;;12.30;99.90;;;;;;7380400;19;20032;-77
2023/12/31 05:16:31;;;;;;;3.08;0.80;;;12.20;99.90;;;;;;7384519;19;20020;-78
2023/12/31 05:19:01;;;;;;;3.28;0.80;;;12.30;99.90;;;;;;7400591;19;20011;-77
2023/12/31 05:21:32;;;;;;;2.95;0.73;;;12.30;99.90;;;;;;7379722;19;20010;-78
2023/12/31 05:24:01;;;;;;;4.70;0.80;;;12.30;99.90;;;;;;7379927;19;20006;-77
2023/12/31 05:26:31;;;;;;;7.60;1.02;;;12.20;99.90;;;;;;7380912;19;20002;-77
2023/12/31 05:29:00;;;;;;;6.68;1.20;;;11.80;99.90;;;;;;7381564;19;20385;-77
2023/12/31 05:31:29;;;;;;;3.30;1.00;;;11.90;99.90;;;;;;7381510;19;20014;-78
2023/12/31 05:33:58;;;;;;;6.85;0.93;;;11.80;99.90;;;;;;7401656;19;20011;-78
2023/12/31 05:36:29;;;;;;;7.55;0.80;;;11.70;99.90;;;;;;7379095;19;20279;-78
2023/12/31 05:39:00;;;;;;;4.00;0.90;;;11.60;99.90;;;;;;7379615;19;20383;-78
2023/12/31 05:41:29;;;;;;;6.78;1.02;;;11.80;99.90;;;;;;7381074;19;20294;-77
2023/12/31 05:43:58;;;;;;;3.13;0.90;;;11.80;99.90;;;;;;7380037;19;20062;-77
2023/12/31 05:46:28;;;;;;;3.63;0.90;;;11.80;99.90;;;;;;7381617;19;20007;-77
2023/12/31 05:48:56;;;;;;;4.13;1.00;;;11.70;99.90;;;;;;7400473;19;20108;-77
2023/12/31 05:51:25;;;;;;;6.78;0.75;;;11.60;99.90;;;;;;7377752;19;20027;-77
2023/12/31 05:53:54;;;;;;;2.40;0.52;;;11.10;99.90;;;;;;7378165;19;20058;-77
2023/12/31 05:56:25;;;;;;;3.10;1.05;;;11.30;99.90;;;;;;7378120;19;20003;-77
2023/12/31 05:58:55;;;;;;;3.63;0.60;;;11.40;99.90;;;;;;7378243;19;20017;-77
2023/12/31 06:01:24;;;;;;;2.38;0.60;;;11.60;99.90;;;;;;7378956;19;20020;-78
2023/12/31 06:03:55;;;;;;;4.57;0.90;;;11.50;99.90;;;;;;7400023;19;20023;-78
2023/12/31 06:06:24;;;;;;;4.13;0.52;;;11.60;99.90;;;;;;7378871;19;20291;-77
2023/12/31 06:08:54;;;;;;;4.40;1.00;;;11.50;99.90;;;;;;7379441;19;20014;-77
2023/12/31 06:11:26;;;;;;;0.98;0.55;;;11.70;99.90;;;;;;7379458;19;19999;-77
2023/12/31 06:13:55;;;;;;;2.33;0.60;;;11.70;99.90;;;;;;7379722;19;20286;-77
2023/12/31 06:16:24;;;;;;;3.90;0.85;;;11.50;99.90;;;;;;7379718;19;20006;-77
2023/12/31 06:18:53;;;;;;;2.97;0.47;;;11.50;99.90;;;;;;7401732;19;20032;-78
2023/12/31 06:21:22;;;;;;;3.80;0.60;;;11.40;99.90;;;;;;7386528;19;20020;-77
2023/12/31 06:23:51;;;;;;;3.75;0.68;;;11.30;99.90;;;;;;7386241;19;20015;-77
2023/12/31 06:26:19;;;;;;;1.95;0.50;;;11.30;99.90;;;;;;7386922;19;20003;-77
2023/12/31 06:28:50;;;;;;;2.17;0.60;;;11.40;99.90;;;;;;7385945;19;20003;-77
2023/12/31 06:31:19;;;;;;;4.47;0.60;;;11.10;99.90;;;;;;7408408;19;20006;-77
2023/12/31 06:33:48;;;;;;;3.67;0.40;;;11.50;99.90;;;;;;7383611;19;20006;-77
2023/12/31 06:36:16;;;;;;;1.90;0.50;;;11.50;99.90;;;;;;7385873;19;20244;-78
2023/12/31 06:38:45;;;;;;;1.00;0.40;;;11.60;99.90;;;;;;7386846;19;20019;-78
2023/12/31 06:41:14;;;;;;;0.65;0.35;;;11.60;99.90;;;;;;7386415;19;20011;-78
2023/12/31 06:43:43;;;;;;;1.65;0.60;;;11.60;99.90;;;;;;7387887;19;20006;-78
2023/12/31 06:46:14;;;;;;;5.68;0.75;;;11.50;99.90;;;;;;7409376;19;20331;-78
2023/12/31 06:48:44;;;;;;;;;;;11.20;99.90;;;;;;7386316;19;20002;-78
2023/12/31 06:51:12;;;;;;;0.70;0.40;;;11.20;99.90;;;;;;7391729;19;19915;-78
2023/12/31 06:53:42;;;;;;;4.45;0.85;;;11.30;99.90;;;;;;7406989;19;20016;-78
2023/12/31 06:56:11;;;;;;;3.40;0.88;;;11.40;99.90;;;;;;7408522;19;20014;-77
2023/12/31 06:58:42;;;;;;;7.18;0.90;;;11.20;99.90;;;;;;7409421;19;20038;-77
2023/12/31 07:01:14;;;;;;;2.10;0.50;;;11.30;99.90;;;;;;7429963;19;20026;-77
2023/12/31 07:03:42;;;;;;;1.45;0.52;;;11.30;99.90;;;;;;7388508;19;20013;-77
2023/12/31 07:06:11;;;;;;;4.55;0.93;;;11.40;99.90;;;;;;7382912;19;20022;-77
2023/12/31 07:08:40;;;;;;;5.28;1.00;;;11.40;99.90;;;;;;7385038;19;20011;-78
2023/12/31 07:11:08;;;;;;;4.30;0.63;;;11.50;99.90;;;;;;7388113;19;20060;-77
2023/12/31 07:13:37;;;;;;;6.13;1.13;;;11.50;99.90;;;;;;7384299;19;20374;-77
2023/12/31 07:16:06;;;;;;;4.07;0.68;;;11.20;99.90;;;;;;7404408;19;20042;-77
2023/12/31 07:18:38;;;;;;;8.95;0.93;;;11.40;99.90;;;;;;7382033;19;20070;-77
2023/12/31 07:21:06;;;;;;;;;;;11.10;99.90;;;;;;7384093;19;20535;-77
2023/12/31 07:23:36;;;;;;;3.55;0.68;;;11.20;99.90;;;;;;7383543;19;19932;-77
2023/12/31 07:26:05;;;;;;;3.40;0.93;;;11.20;99.90;;;;;;7385520;19;20007;-77
2023/12/31 07:28:34;;;;;;;6.18;0.70;;;11.30;99.90;;;;;;7385625;19;20390;-77
2023/12/31 07:31:02;;;;;;;7.90;0.98;;;11.20;99.90;;;;;;7405156;19;20002;-77
2023/12/31 07:33:31;;;;;;;11.27;1.20;;;11.50;99.90;;;;;;7384720;19;20378;-77
2023/12/31 07:36:03;;;;;;;7.78;1.17;;;11.60;99.90;;;;;;7382108;19;20027;-77
2023/12/31 07:38:31;;;;;;;4.20;0.90;;;11.50;99.90;;;;;;7385510;19;20013;-76
2023/12/31 07:41:00;;;;;;;3.45;0.90;;;11.50;99.90;;;;;;7386091;19;20398;-78
2023/12/31 07:43:29;;;;;;;3.22;0.70;;;11.30;99.90;;;;;;7383448;19;20015;-78
2023/12/31 07:45:59;;;;;;;5.85;1.20;;;11.30;99.90;;;;;;7403880;19;20043;-78
2023/12/31 07:48:37;;;;;;;5.05;1.10;;;11.30;99.90;;;;;;7389315;19;20025;-78
2023/12/31 07:51:09;;;;;;;6.57;1.08;;;11.30;99.90;;;;;;7391930;19;20366;-78
2023/12/31 07:53:37;;;;;;;6.63;1.17;;;11.10;99.90;;;;;;7386988;19;20015;-78
2023/12/31 07:56:07;;;;;;;5.20;1.00;;;11.30;99.90;;;;;;7386219;19;20019;-79
2023/12/31 07:58:36;;;;;;;7.05;1.23;;;11.50;99.90;;;;;;7385907;19;20018;-78
2023/12/31 08:01:05;;;;;;;10.38;1.40;;;11.40;99.90;;;;;;7407635;19;20378;-78
2023/12/31 08:03:34;;;;;;;6.32;1.23;;;11.60;99.90;;;;;;7386339;19;20019;-78
2023/12/31 08:06:03;;;;;;;8.07;1.42;;;11.40;99.90;;;;;;7385331;19;20003;-78
2023/12/31 08:08:35;;;;;;;9.00;0.95;;;11.60;99.90;;;;;;7385741;19;20003;-78
2023/12/31 08:11:03;;;;;;;6.75;1.45;;;11.60;99.90;;;;;;7384509;19;20379;-78
2023/12/31 08:13:33;;;;;;;6.07;1.20;;;11.70;99.90;;;;;;7383271;19;20015;-78
2023/12/31 08:16:03;;;;;;;6.80;1.23;;;11.50;99.90;;;;;;7404123;19;20377;-78
2023/12/31 08:18:33;;;;;;;5.80;0.90;;;11.70;99.90;;;;;;7382374;19;20010;-77
2023/12/31 08:21:01;;;;;;;8.13;1.40;;;11.80;99.90;;;;;;7386079;19;20002;-78
2023/12/31 08:23:36;;;;;;;6.35;1.20;;;11.90;99.90;;;;;;7384470;19;20032;-78
2023/12/31 08:26:06;;;;;;;6.97;1.30;;;11.60;99.90;;;;;;7384982;19;19999;-78
2023/12/31 08:28:35;;;;;;;10.32;1.30;;;11.50;99.90;;;;;;7380828;19;20382;-78
2023/12/31 08:31:04;;;;;;;9.02;1.55;;;11.30;99.90;;;;;;7403759;19;20018;-78
2023/12/31 08:33:32;;;;;;;11.38;1.10;;;11.50;99.90;;;;;;7381184;19;20015;-77
2023/12/31 08:36:01;;;;;;;14.55;1.15;;;11.50;99.90;;;;;;7382546;19;20010;-78
2023/12/31 08:38:32;;;;;;;11.73;1.42;;;11.70;99.90;;;;;;7380237;19;20007;-78
2023/12/31 08:41:03;;;;;;;9.32;1.85;;;11.80;99.90;;;;;;7380729;19;20015;-77
2023/12/31 08:43:32;;;;;;;8.55;1.73;;;11.60;99.90;;;;;;7378590;19;20011;-77
2023/12/31 08:46:00;;;;;;;5.18;0.98;;;11.70;99.90;;;;;;7402155;19;20015;-78
2023/12/31 08:48:31;;;;;;;5.65;1.13;;;11.50;99.90;;;;;;7379394;19;20514;-78
2023/12/31 08:51:00;;;;;;;11.95;2.10;;;11.40;99.90;;;;;;7380322;19;20023;-79
2023/12/31 08:53:29;;;;;;;11.27;1.92;;;11.40;99.90;;;;;;7379352;19;20350;-77
2023/12/31 08:55:58;;;;;;;9.15;1.80;;;11.50;99.90;;;;;;7381907;19;20044;-78
2023/12/31 08:58:32;;;;;;;10.13;2.42;;;11.20;99.90;;;;;;7379160;19;19999;-79
2023/12/31 09:01:00;;;;;;;8.80;2.13;;;11.30;99.90;;;;;;7405187;19;20294;-78
2023/12/31 09:03:30;;;;;;;13.93;1.77;;;11.50;99.90;;;;;;7394236;19;20007;-77
2023/12/31 09:05:59;;;;;;;18.20;3.33;;;11.60;99.90;;;;;;7402212;19;20070;-79
2023/12/31 09:08:29;;;;;;;13.05;3.38;;;11.60;99.90;;;;;;7403814;19;20002;-78
2023/12/31 09:11:01;;;;;;;10.50;2.45;;;11.70;99.90;;;;;;7403119;19;20010;-79
2023/12/31 09:13:35;;;;;;;18.25;2.63;;;11.70;99.90;;;;;;7388511;19;20051;-81
2023/12/31 09:16:04;;;;;;;12.50;3.00;;;12.00;99.90;;;;;;7404552;19;20027;-79
2023/12/31 09:18:33;;;;;;;12.00;2.40;;;12.00;99.90;;;;;;7386728;19;20032;-82
2023/12/31 09:21:10;;;;;;;13.63;1.85;;;12.00;99.90;;;;;;7385498;19;20006;-78
2023/12/31 09:23:40;;;;;;;17.23;2.67;;;11.90;99.90;;;;;;7381975;19;20010;-78
2023/12/31 09:26:10;;;;;;;12.98;2.03;;;11.90;99.90;;;;;;7381241;19;20362;-77
2023/12/31 09:28:42;;;;;;;15.73;2.35;;;11.40;99.90;;;;;;7386967;19;20231;-78
2023/12/31 09:31:11;;;;;;;15.68;2.65;;;11.30;99.90;;;;;;7402830;19;20003;-78
2023/12/31 09:33:40;;;;;;;14.38;2.42;;;11.60;99.90;;;;;;7383687;19;20045;-79
2023/12/31 09:36:10;;;;;;;22.30;2.97;;;11.40;99.90;;;;;;7381625;19;20289;-78
2023/12/31 09:38:38;;;;;;;13.25;2.30;;;11.40;99.90;;;;;;7383767;19;20130;-78
2023/12/31 09:41:08;;;;;;;21.85;2.78;;;11.50;99.90;;;;;;7381689;19;20018;-77
2023/12/31 09:43:37;;;;;;;19.30;2.95;;;11.90;99.90;;;;;;7381947;19;19999;-78
2023/12/31 09:46:08;;;;;;;23.95;3.10;;;11.90;99.90;;;;;;7401968;19;20363;-78
2023/12/31 09:48:37;;;;;;;;;;;11.90;99.90;;;;;;7380863;19;20038;-78
2023/12/31 09:51:06;;;;;;;15.77;2.05;;;11.90;99.90;;;;;;7380122;19;19914;-78
2023/12/31 09:53:36;;;;;;;18.52;2.78;;;12.10;99.90;;;;;;7380406;19;20011;-80
2023/12/31 09:56:07;;;;;;;10.23;1.85;;;12.10;99.90;;;;;;7386034;19;20010;-80
2023/12/31 09:58:37;;;;;;;;;;;12.20;99.90;;;;;;7388368;19;20006;-79
2023/12/31 10:01:10;;;;;;;24.17;3.40;;;12.30;99.90;;;;;;7410863;19;19914;-78
2023/12/31 10:03:40;;;;;;;20.23;2.78;;;12.30;99.90;;;;;;7389143;19;20007;-78
2023/12/31 10:06:10;;;;;;;18.05;2.78;;;12.30;99.90;;;;;;7389402;19;20019;-78
2023/12/31 10:08:40;;;;;;;23.33;2.65;;;12.30;99.90;;;;;;7387630;19;20085;-78
2023/12/31 10:11:09;;;;;;;24.75;3.10;;;12.40;99.90;;;;;;7386997;19;20016;-78
2023/12/31 10:13:38;;;;;;;17.95;3.15;;;12.50;99.90;;;;;;7388764;19;20018;-79
2023/12/31 10:16:17;;;;;;;20.02;3.00;;;12.60;99.90;;;;;;7410616;19;20003;-79
2023/12/31 10:18:46;;;;;;;23.75;3.30;;;12.60;99.90;;;;;;7392083;19;20031;-79
2023/12/31 10:21:14;;;;;;;19.75;2.92;;;12.60;99.90;;;;;;7392629;19;20035;-79
2023/12/31 10:23:44;;;;;;;30.65;3.53;;;12.20;99.90;;;;;;7395293;19;20003;-79
2023/12/31 10:26:12;;;;;;;19.40;3.30;;;12.10;99.90;;;;;;7391127;19;20023;-79
2023/12/31 10:28:43;;;;;;;28.83;3.95;;;12.00;99.90;;;;;;7390209;19;20015;-79
2023/12/31 10:31:15;;;;;;;24.98;3.85;;;12.10;99.90;;;;;;7414602;19;20014;-78
2023/12/31 10:33:43;;;;;;;27.92;3.70;;;12.40;99.90;;;;;;7389660;19;20007;-79
2023/12/31 10:36:12;;;;;;;20.58;3.10;;;12.40;99.90;;;;;;7388655;19;20401;-79
2023/12/31 10:38:47;;;;;;;23.50;3.63;;;12.40;99.90;;;;;;7387060;19;20077;-79
2023/12/31 10:41:21;;;;;;;23.45;3.90;;;12.40;99.90;;;;;;7386317;19;20071;-80
2023/12/31 10:43:50;;;;;;;24.88;4.93;;;12.60;99.90;;;;;;7386553;19;20020;-78
2023/12/31 10:46:23;;;;;;;25.75;3.33;;;12.40;99.90;;;;;;7408692;19;20031;-79
2023/12/31 10:49:00;;;;;;;29.33;5.55;;;12.40;99.90;;;;;;7388618;19;20006;-79
2023/12/31 10:51:31;;;;;;;27.40;3.83;;;12.10;99.90;;;;;;7386995;19;20361;-79
2023/12/31 10:54:03;;;;;;;18.40;3.65;;;12.00;99.90;;;;;;7388677;19;20074;-78
2023/12/31 10:56:32;;;;;;;27.40;3.60;;;11.90;99.90;;;;;;7389445;19;20004;-79
2023/12/31 10:59:01;;;;;;;19.30;3.28;;;11.90;99.90;;;;;;7387665;19;20007;-79
2023/12/31 11:01:33;;;;;;;23.85;3.10;;;12.20;99.90;;;;;;7388370;19;20487;-79
2023/12/31 11:04:05;;;;;;;30.13;5.07;;;12.00;99.90;;;;;;7409948;19;20007;-79
2023/12/31 11:06:34;;;;;;;40.80;4.43;;;12.00;99.90;;;;;;7385867;19;20720;-78
2023/12/31 11:09:04;;;;;;;35.30;6.38;;;12.00;99.90;;;;;;7387614;19;20010;-80
2023/12/31 11:11:33;;;;;;;24.27;3.70;;;11.90;99.90;;;;;;7388905;19;20006;-79
2023/12/31 11:14:06;;;;;;;21.27;4.07;;;12.00;99.90;;;;;;7405574;19;20015;-78
2023/12/31 11:16:54;;;;;;;28.80;3.85;;;12.00;99.90;;;;;;7408116;19;20035;-78
2023/12/31 11:19:56;;;;;;;31.83;5.15;;;12.00;99.90;;;;;;7430273;19;20011;-78
2023/12/31 11:22:31;;;;;;;;;;;12.20;99.90;;;;;;7402052;19;20018;-79
2023/12/31 11:25:04;;;;;;;28.52;4.55;;;12.10;99.90;;;;;;7412760;19;19915;-80
2023/12/31 11:27:35;;;;;;;25.45;4.38;;;12.20;99.90;;;;;;7389485;19;20007;-81
2023/12/31 11:30:07;;;;;;;33.55;6.60;;;11.90;99.90;;;;;;7390878;19;20003;-80
2023/12/31 11:32:41;;;;;;;38.05;8.80;;;12.20;99.90;;;;;;7390058;19;20010;-79
2023/12/31 11:35:13;;;;;;;30.65;4.82;;;12.10;99.90;;;;;;7389258;19;20011;-80
2023/12/31 11:37:43;;;;;;;31.40;7.35;;;12.10;99.90;;;;;;7388774;19;20032;-80
2023/12/31 11:40:14;;;;;;;23.13;5.40;;;12.00;99.90;;;;;;7412080;19;20081;-80
2023/12/31 11:42:43;;;;;;;24.38;2.83;;;12.30;99.90;;;;;;7389912;19;20462;-79
2023/12/31 11:45:41;;;;;;;16.35;3.05;;;12.50;99.90;;;;;;7387198;19;20007;-80
2023/12/31 11:48:24;;;;;;;18.35;3.33;;;12.50;99.90;;;;;;7387577;19;20006;-79
2023/12/31 11:50:54;;;;;;;23.58;3.42;;;12.20;99.90;;;;;;7387314;19;19999;-78
2023/12/31 11:53:30;;;;;;;24.05;3.15;;;12.20;99.90;;;;;;7385016;19;20019;-77
2023/12/31 11:56:00;;;;;;;8.98;2.00;;;12.00;99.90;;;;;;7385997;19;20018;-79
2023/12/31 11:58:29;;;;;;;14.68;2.42;;;12.00;99.90;;;;;;7407805;19;20003;-78
2023/12/31 12:00:59;;;;;;;19.67;3.45;;;12.20;99.90;;;;;;7389852;19;20234;-78
2023/12/31 12:03:31;;;;;;;10.60;2.72;;;12.00;99.90;;;;;;7381945;19;20552;-77
2023/12/31 12:05:59;;;;;;;11.65;2.28;;;12.00;99.90;;;;;;7384443;19;20002;-79
2023/12/31 12:08:29;;;;;;;17.58;4.85;;;12.20;99.90;;;;;;7383611;19;20054;-78
2023/12/31 12:10:58;;;;;;;11.48;2.25;;;12.20;99.90;;;;;;7386937;19;20003;-78
2023/12/31 12:13:28;;;;;;;13.90;2.45;;;12.00;99.90;;;;;;7401278;19;20461;-77
2023/12/31 12:16:00;;;;;;;18.48;2.40;;;12.00;99.90;;;;;;7382996;19;20010;-80
2023/12/31 12:18:31;;;;;;;17.40;2.15;;;12.30;99.90;;;;;;7379190;19;20231;-77
2023/12/31 12:20:59;;;;;;;;;;;12.20;99.90;;;;;;7381698;19;20003;-77
2023/12/31 12:23:28;;;;;;;12.90;2.75;;;12.40;99.90;;;;;;7382119;19;20227;-77
2023/12/31 12:26:00;;;;;;;16.10;3.17;;;12.30;99.90;;;;;;7383475;19;20007;-80
2023/12/31 12:28:29;;;;;;;19.00;2.75;;;12.20;99.90;;;;;;7405000;19;20219;-79
2023/12/31 12:31:01;;;;;;;11.15;2.15;;;12.30;99.90;;;;;;7381500;19;20393;-80
2023/12/31 12:33:41;;;;;;;14.00;2.65;;;12.40;99.90;;;;;;7380565;19;20237;-81
2023/12/31 12:36:10;;;;;;;16.10;2.67;;;12.50;99.90;;;;;;7380375;19;20025;-76
2023/12/31 12:38:40;;;;;;;13.13;2.58;;;12.50;99.90;;;;;;7381506;19;20023;-78
2023/12/31 12:41:10;;;;;;;14.55;2.78;;;12.70;99.90;;;;;;7380425;19;20003;-77
2023/12/31 12:43:38;;;;;;;11.68;1.92;;;12.70;99.90;;;;;;7387817;19;20017;-76
2023/12/31 12:46:10;;;;;;;12.63;2.40;;;12.30;99.90;;;;;;7402837;19;20065;-77
2023/12/31 12:48:56;;;;;;;12.32;2.10;;;12.30;99.90;;;;;;7378224;19;20385;-76
2023/12/31 12:51:25;;;;;;;12.25;2.00;;;12.50;99.90;;;;;;7380460;19;20046;-77
2023/12/31 12:53:57;;;;;;;13.75;2.13;;;12.30;99.90;;;;;;7381549;19;20224;-78
2023/12/31 12:56:26;;;;;;;20.08;2.83;;;12.40;99.90;;;;;;7381284;19;20031;-77
2023/12/31 12:58:55;;;;;;;14.25;2.25;;;12.40;99.90;;;;;;7380670;19;20247;-79
2023/12/31 13:01:24;;;;;;;10.55;2.22;;;12.50;99.90;;;;;;7398775;19;20083;-78